Time;durP1;ratioP1;P1;durP2;ratioP2;P2;SDS_P1;SDS_P2;PMS_P1;PMS_P2;Temp;Humidity;BMP_temperature;BMP_pressure;BME280_temperature;BME280_humidity;BME280_pressure;Samples;Min_cycle;Max_cycle;Signal;HPM_P1;HPM_P2
2023/07/18 00:00:36;;;;;;;;;3.50;1.00;;;;;25.30;35.17;101676.78;5020773;28;45328;-35
2023/07/18 00:03:03;;;;;;;;;1.25;1.25;;;;;25.31;35.27;101668.72;5002853;28;46119;-35
2023/07/18 00:05:29;;;;;;;;;2.25;2.00;;;;;25.31;35.46;101671.38;5001814;28;45423;-38
2023/07/18 00:07:55;;;;;;;;;2.25;1.25;;;;;25.31;34.96;101671.38;5020552;28;45415;-36
2023/07/18 00:10:22;;;;;;;;;2.00;2.00;;;;;25.29;35.27;101667.97;5021563;28;44928;-37
2023/07/18 00:12:48;;;;;;;;;1.00;1.00;;;;;25.27;35.51;101661.91;5023555;28;45400;-34
2023/07/18 00:15:14;;;;;;;;;2.75;1.00;;;;;25.29;35.09;101667.13;5020064;28;45351;-38
2023/07/18 00:17:40;;;;;;;;;1.00;1.00;;;;;25.28;35.22;101671.59;5036187;28;45237;-38
2023/07/18 00:20:12;;;;;;;;;2.00;2.00;;;;;25.27;35.76;101675.19;5042555;28;44798;-37
2023/07/18 00:22:38;;;;;;;;;3.25;2.00;;;;;25.29;35.84;101675.06;5027734;28;47112;-35
2023/07/18 00:25:04;;;;;;;;;2.25;2.25;;;;;25.27;35.56;101661.91;5001930;28;45813;-35
2023/07/18 00:27:30;;;;;;;;;7.75;2.25;;;;;25.27;35.16;101663.69;5027917;28;45415;-37
2023/07/18 00:29:55;;;;;;;;;4.00;3.00;;;;;25.24;35.35;101659.44;5039171;28;45311;-36
2023/07/18 00:32:23;;;;;;;;;3.75;3.00;;;;;25.26;35.34;101657.56;5028122;28;46189;-35
2023/07/18 00:34:49;;;;;;;;;2.25;2.25;;;;;25.26;34.98;101672.59;5027887;28;45233;-37
2023/07/18 00:37:15;;;;;;;;;3.00;3.00;;;;;25.24;35.10;101662.09;5022031;28;45253;-35
2023/07/18 00:39:41;;;;;;;;;4.25;3.00;;;;;25.24;35.53;101658.59;5019238;28;45447;-34
2023/07/18 00:42:07;;;;;;;;;3.00;3.00;;;;;25.23;35.37;101655.09;5019108;28;45561;-37
2023/07/18 00:44:32;;;;;;;;;1.75;1.75;;;;;25.21;35.38;101651.66;5018295;28;45380;-35
2023/07/18 00:46:57;;;;;;;;;2.75;2.75;;;;;25.21;35.58;101649.03;5019163;28;45379;-35
2023/07/18 00:49:23;;;;;;;;;2.00;2.00;;;;;25.20;35.40;101644.66;5019165;28;45484;-35
2023/07/18 00:51:49;;;;;;;;;2.00;2.00;;;;;25.22;35.05;101645.41;5018432;28;45459;-36
2023/07/18 00:54:15;;;;;;;;;5.25;3.00;;;;;25.22;35.71;101649.88;5018581;28;45838;-36
2023/07/18 00:56:40;;;;;;;;;2.00;2.00;;;;;25.21;35.10;101651.66;5017991;28;45396;-33
2023/07/18 00:59:07;;;;;;;;;3.00;3.00;;;;;25.20;35.42;101642.00;5021650;28;45601;-34
2023/07/18 01:01:34;;;;;;;;;4.00;2.25;;;;;25.20;35.74;101646.47;5023733;28;46417;-35
2023/07/18 01:03:59;;;;;;;;;2.00;2.00;;;;;25.19;35.75;101634.16;5021916;28;45652;-35
2023/07/18 01:06:24;;;;;;;;;1.25;1.00;;;;;25.15;35.67;101642.28;5028567;28;45392;-37
2023/07/18 01:08:50;;;;;;;;;1.00;1.00;;;;;25.13;35.21;101635.38;5026017;28;45266;-39
2023/07/18 01:11:15;;;;;;;;;4.75;2.00;;;;;25.10;35.36;101640.88;5001787;28;47376;-42
2023/07/18 01:13:41;;;;;;;;;4.00;1.00;;;;;25.12;35.12;101639.84;5018171;28;45325;-36
2023/07/18 01:16:07;;;;;;;;;2.00;2.00;;;;;25.11;35.14;101632.84;5018892;28;45221;-35
2023/07/18 01:18:32;;;;;;;;;4.25;1.50;;;;;25.11;35.54;101637.28;5018500;28;45423;-36
2023/07/18 01:20:59;;;;;;;;;3.00;1.00;;;;;25.11;35.28;101627.53;5019685;28;50530;-38
2023/07/18 01:23:25;;;;;;;;;1.25;1.25;;;;;25.08;35.05;101621.59;5018274;28;45523;-36
2023/07/18 01:25:50;;;;;;;;;1.00;1.00;;;;;25.10;35.15;101632.91;5000472;28;45302;-37
2023/07/18 01:28:15;;;;;;;;;1.00;1.00;;;;;25.11;35.16;101629.31;5018064;28;47770;-34
2023/07/18 01:30:41;;;;;;;;;2.50;1.00;;;;;25.11;35.70;101632.84;5017964;28;46392;-37
2023/07/18 01:33:06;;;;;;;;;1.00;1.00;;;;;25.10;35.63;101631.13;5017852;28;45438;-37
2023/07/18 01:35:32;;;;;;;;;2.00;2.00;;;;;25.08;35.11;101629.53;5017577;28;45325;-34
2023/07/18 01:37:58;;;;;;;;;2.00;1.00;;;;;25.09;35.58;101633.88;4984464;28;45315;-35
2023/07/18 01:40:24;;;;;;;;;1.75;1.75;;;;;25.07;35.02;101635.78;5018091;28;47168;-35
2023/07/18 01:42:51;;;;;;;;;2.00;2.00;;;;;25.08;34.96;101632.19;5032136;28;45222;-35
2023/07/18 01:45:17;;;;;;;;;3.25;1.50;;;;;25.08;34.84;101634.84;5023974;28;45297;-37
2023/07/18 01:47:42;;;;;;;;;1.00;1.00;;;;;25.06;35.48;101629.59;5022465;28;45374;-36
2023/07/18 01:50:08;;;;;;;;;3.00;1.00;;;;;25.07;34.91;101627.81;5024348;28;57316;-34
2023/07/18 01:52:34;;;;;;;;;1.75;1.00;;;;;25.04;34.84;101615.59;5025527;28;45439;-37
2023/07/18 01:55:01;;;;;;;;;1.00;1.00;;;;;25.07;35.45;101625.19;5024940;28;44771;-34
2023/07/18 01:57:40;;;;;;;;;1.00;1.00;;;;;25.05;35.23;101608.50;5021219;28;45503;-35
2023/07/18 02:00:11;;;;;;;;;1.00;1.00;;;;;25.03;35.19;101607.75;5018272;28;45401;-36
2023/07/18 02:02:39;;;;;;;;;1.00;1.00;;;;;25.01;35.05;101600.72;5018122;28;45726;-37
2023/07/18 02:05:05;;;;;;;;;1.25;0.75;;;;;25.02;34.79;101606.91;5017751;28;45279;-37
2023/07/18 02:07:31;;;;;;;;;1.00;1.00;;;;;25.03;35.42;101605.94;5020895;28;45222;-36
2023/07/18 02:09:57;;;;;;;;;2.00;1.25;;;;;25.03;35.23;101608.56;5035988;28;46171;-35
2023/07/18 02:12:23;;;;;;;;;1.00;0.00;;;;;25.02;35.38;101606.91;5042420;28;45258;-37
2023/07/18 02:14:48;;;;;;;;;1.00;1.00;;;;;25.03;35.37;101605.09;5021204;28;45502;-37
2023/07/18 02:17:13;;;;;;;;;1.50;1.00;;;;;25.03;34.91;101597.97;5017798;28;45453;-35
2023/07/18 02:19:38;;;;;;;;;0.00;0.00;;;;;25.01;34.93;101592.78;4999308;28;46039;-34
2023/07/18 02:22:04;;;;;;;;;0.00;0.00;;;;;25.02;34.69;101591.00;5017653;28;45406;-37
2023/07/18 02:24:30;;;;;;;;;2.25;1.00;;;;;25.02;34.85;101591.00;5024426;28;45490;-35
2023/07/18 02:26:57;;;;;;;;;0.50;0.50;;;;;25.03;34.72;101586.53;5036308;28;45560;-35
2023/07/18 02:29:22;;;;;;;;;0.75;0.75;;;;;25.00;34.87;101577.81;5039432;28;45233;-36
2023/07/18 02:31:47;;;;;;;;;2.25;1.00;;;;;24.96;34.64;101573.66;5019172;28;53504;-33
2023/07/18 02:34:13;;;;;;;;;0.00;0.00;;;;;24.97;35.04;101579.81;5017662;28;45424;-34
2023/07/18 02:36:38;;;;;;;;;2.00;0.25;;;;;24.92;35.22;101577.44;5017078;28;45520;-35
2023/07/18 02:39:07;;;;;;;;;1.00;0.00;;;;;24.91;35.04;101573.09;5017157;28;45247;-38
2023/07/18 02:41:33;;;;;;;;;2.00;0.00;;;;;24.90;34.64;101576.69;5017388;28;45774;-36
2023/07/18 02:43:58;;;;;;;;;1.00;1.00;;;;;24.88;34.85;101573.25;5017063;28;45443;-34
2023/07/18 02:46:23;;;;;;;;;0.50;0.50;;;;;24.88;35.16;101570.63;5016636;28;51190;-36
2023/07/18 02:48:49;;;;;;;;;2.00;0.50;;;;;24.84;35.23;101567.31;5016586;28;46948;-37
2023/07/18 02:51:14;;;;;;;;;0.25;0.25;;;;;24.80;35.15;101568.47;5016116;28;45335;-35
2023/07/18 02:53:39;;;;;;;;;3.50;1.00;;;;;24.79;35.14;101564.13;5025861;28;45327;-34
2023/07/18 02:56:05;;;;;;;;;0.00;0.00;;;;;24.79;34.71;101563.25;5039630;28;44828;-36
2023/07/18 02:58:30;;;;;;;;;0.50;0.50;;;;;24.74;34.66;101560.88;5024999;28;45531;-37
2023/07/18 03:00:55;;;;;;;;;2.75;2.00;;;;;24.74;35.00;101560.88;5017031;28;57506;-38
2023/07/18 03:03:22;;;;;;;;;0.25;0.25;;;;;24.75;34.90;101549.34;5017200;28;45332;-36
2023/07/18 03:05:51;;;;;;;;;0.75;0.25;;;;;24.77;34.86;101551.88;5017522;28;45505;-37
2023/07/18 03:08:16;;;;;;;;;1.00;1.00;;;;;24.78;34.65;101550.94;5036073;28;46120;-38
2023/07/18 03:10:42;;;;;;;;;2.00;1.00;;;;;24.73;34.99;101537.13;5028732;28;61307;-36
2023/07/18 03:13:07;;;;;;;;;1.00;1.00;;;;;24.69;34.61;101541.78;5023774;28;45380;-35
2023/07/18 03:15:32;;;;;;;;;1.00;1.00;;;;;24.69;35.08;101537.31;5035368;28;52251;-38
2023/07/18 03:17:58;;;;;;;;;2.00;1.25;;;;;24.64;34.71;101531.41;5022803;28;50384;-35
2023/07/18 03:20:23;;;;;;;;;1.00;1.00;;;;;24.65;35.15;101529.63;5018905;28;45454;-37
2023/07/18 03:22:50;;;;;;;;;1.00;1.00;;;;;24.63;34.79;101531.50;5018976;28;45435;-36
2023/07/18 03:25:17;;;;;;;;;2.00;0.75;;;;;24.64;34.58;101531.41;5005069;28;45567;-36
2023/07/18 03:27:43;;;;;;;;;1.25;0.00;;;;;24.64;34.62;101525.25;5022414;28;47104;-37
2023/07/18 03:30:12;;;;;;;;;2.75;1.75;;;;;24.66;34.83;101528.66;5024390;28;45200;-36
2023/07/18 03:32:39;;;;;;;;;2.00;0.00;;;;;24.67;34.45;101531.22;5027241;28;45490;-35
2023/07/18 03:35:06;;;;;;;;;1.00;1.00;;;;;24.64;34.51;101533.22;5019778;28;45495;-37
2023/07/18 03:37:32;;;;;;;;;1.75;1.00;;;;;24.63;34.72;101534.16;5016345;28;46344;-36
2023/07/18 03:39:57;;;;;;;;;1.00;1.00;;;;;24.59;35.10;101529.97;5016287;28;45328;-36
2023/07/18 03:42:22;;;;;;;;;1.75;0.25;;;;;24.60;34.55;101529.91;5016761;28;45295;-38
2023/07/18 03:44:48;;;;;;;;;0.00;0.00;;;;;24.61;34.67;101526.31;5019119;28;45583;-36
2023/07/18 03:47:13;;;;;;;;;1.00;1.00;;;;;24.62;35.02;101524.50;5023523;28;45289;-36
2023/07/18 03:49:39;;;;;;;;;1.00;1.00;;;;;24.65;34.95;101529.63;5026433;28;45300;-39
2023/07/18 03:52:05;;;;;;;;;1.00;1.00;;;;;24.67;34.82;101528.56;5018029;28;59912;-35
2023/07/18 03:54:34;;;;;;;;;2.00;2.00;;;;;24.70;34.56;101527.53;5030405;28;45230;-34
2023/07/18 03:57:00;;;;;;;;;3.00;1.00;;;;;24.72;35.00;101522.16;5031798;28;45023;-37
2023/07/18 03:59:26;;;;;;;;;2.00;1.00;;;;;24.72;34.58;101514.22;5032393;28;45749;-35
2023/07/18 04:01:52;;;;;;;;;1.00;1.00;;;;;24.77;34.99;101517.41;5029820;28;45392;-35
2023/07/18 04:04:17;;;;;;;;;0.00;0.00;;;;;24.77;34.91;101512.97;5031891;28;45355;-36
2023/07/18 04:06:45;;;;;;;;;1.25;1.00;;;;;24.73;34.86;101505.31;5026042;28;46296;-35
2023/07/18 04:09:11;;;;;;;;;2.00;0.75;;;;;24.79;34.58;101523.47;5026886;28;45353;-34
2023/07/18 04:11:37;;;;;;;;;1.75;1.00;;;;;24.80;34.29;101511.94;5028430;28;45300;-35
2023/07/18 04:14:03;;;;;;;;;1.00;1.00;;;;;24.80;34.28;101515.44;5027522;28;45324;-34
2023/07/18 04:16:28;;;;;;;;;2.00;2.00;;;;;24.81;34.54;101510.97;5026218;28;45280;-35
2023/07/18 04:18:53;;;;;;;;;1.75;0.00;;;;;24.81;34.82;101505.69;5028951;28;45438;-36
2023/07/18 04:21:19;;;;;;;;;1.00;1.00;;;;;24.79;34.78;101500.47;5031946;28;51973;-35
2023/07/18 04:23:44;;;;;;;;;1.50;0.00;;;;;24.80;34.58;101501.31;5030412;28;45399;-36
2023/07/18 04:26:11;;;;;;;;;3.25;1.00;;;;;24.79;34.78;101499.63;5031995;28;45408;-35
2023/07/18 04:28:36;;;;;;;;;1.00;1.00;;;;;24.81;34.79;101503.03;5032280;28;45339;-38
2023/07/18 04:31:02;;;;;;;;;2.00;1.00;;;;;24.79;34.38;101499.63;5032605;28;45415;-35
2023/07/18 04:33:32;;;;;;;;;1.00;1.00;;;;;24.79;34.73;101495.19;5033675;28;45557;-37
2023/07/18 04:35:57;;;;;;;;;2.00;1.00;;;;;24.77;34.70;101489.13;5029710;28;46215;-34
2023/07/18 04:38:23;;;;;;;;;0.25;0.25;;;;;24.76;34.16;101484.75;5023106;28;45417;-36
2023/07/18 04:40:49;;;;;;;;;2.00;0.25;;;;;24.75;34.15;101484.88;5020504;28;45387;-35
2023/07/18 04:43:14;;;;;;;;;3.00;2.00;;;;;24.72;34.30;101477.09;5023469;28;45339;-34
2023/07/18 04:45:41;;;;;;;;;0.00;0.00;;;;;24.74;34.52;101477.88;5022766;28;45967;-35
2023/07/18 04:48:07;;;;;;;;;1.50;0.75;;;;;24.69;33.94;101479.00;5031427;28;45300;-35
2023/07/18 04:50:32;;;;;;;;;1.25;1.00;;;;;24.70;33.98;101470.09;5031820;28;44778;-34
2023/07/18 04:52:57;;;;;;;;;0.75;0.00;;;;;24.70;34.29;101470.09;5024504;28;45230;-37
2023/07/18 04:55:22;;;;;;;;;1.00;0.00;;;;;24.68;33.88;101469.34;5031200;28;45503;-35
2023/07/18 04:57:48;;;;;;;;;1.00;1.00;;;;;24.67;34.50;101467.59;5043088;28;44675;-34
2023/07/18 05:00:14;;;;;;;;;1.50;1.00;;;;;24.65;33.96;101464.19;5027789;28;45291;-36
2023/07/18 05:02:40;;;;;;;;;1.00;1.00;;;;;24.63;34.12;101455.50;5040799;28;45151;-34
2023/07/18 05:05:06;;;;;;;;;1.25;1.25;;;;;24.60;34.36;101457.47;5040330;28;45947;-36
2023/07/18 05:07:31;;;;;;;;;1.00;1.00;;;;;24.55;33.76;101453.34;5043545;28;44699;-35
2023/07/18 05:09:57;;;;;;;;;0.75;0.75;;;;;24.54;34.26;101451.63;5039902;28;45147;-37
2023/07/18 05:12:22;;;;;;;;;2.75;2.00;;;;;24.54;34.26;101448.97;5025583;28;45371;-34
2023/07/18 05:14:47;;;;;;;;;0.00;0.00;;;;;24.53;34.12;101436.69;5021033;28;45657;-34
2023/07/18 05:17:13;;;;;;;;;1.67;1.67;;;;;24.49;33.90;101435.16;5023812;28;60859;-35
2023/07/18 05:19:38;;;;;;;;;2.00;1.00;;;;;24.49;34.02;101434.31;5027456;28;45340;-35
2023/07/18 05:22:04;;;;;;;;;2.25;1.50;;;;;24.50;34.13;101446.63;5024521;28;45442;-36
2023/07/18 05:24:29;;;;;;;;;1.50;0.75;;;;;24.48;33.50;101449.34;5034425;28;45328;-37
2023/07/18 05:26:54;;;;;;;;;0.00;0.00;;;;;24.51;33.54;101449.16;5021178;28;57465;-39
2023/07/18 05:29:19;;;;;;;;;0.00;0.00;;;;;24.49;34.03;101450.22;5018822;28;45340;-39
2023/07/18 05:31:45;;;;;;;;;1.00;1.00;;;;;24.49;33.97;101444.91;5024445;28;45245;-40
2023/07/18 05:34:10;;;;;;;;;3.00;0.75;;;;;24.53;33.48;101457.00;5021864;28;46697;-38
2023/07/18 05:36:35;;;;;;;;;1.00;1.00;;;;;24.55;33.51;101444.53;5018203;28;45316;-36
2023/07/18 05:39:01;;;;;;;;;1.75;0.75;;;;;24.55;33.57;101445.38;5017535;28;56537;-36
2023/07/18 05:41:26;;;;;;;;;0.00;0.00;;;;;24.57;33.80;101453.22;5018760;28;45459;-36
2023/07/18 05:43:52;;;;;;;;;1.00;1.00;;;;;24.57;33.82;101455.03;5024460;28;46630;-38
2023/07/18 05:46:17;;;;;;;;;1.00;1.00;;;;;24.57;33.48;101458.53;5025567;28;45507;-36
2023/07/18 05:48:42;;;;;;;;;0.75;0.75;;;;;24.57;33.46;101450.59;5025241;28;45566;-37
2023/07/18 05:51:08;;;;;;;;;0.00;0.00;;;;;24.57;33.80;101453.22;5022056;28;45277;-34
2023/07/18 05:53:33;;;;;;;;;1.00;1.00;;;;;24.54;33.33;101459.59;5023070;28;45480;-34
2023/07/18 05:55:58;;;;;;;;;1.50;1.00;;;;;24.53;33.36;101454.34;5019050;28;45372;-35
2023/07/18 05:58:24;;;;;;;;;1.00;1.00;;;;;24.51;33.43;101451.81;5028380;28;45399;-34
2023/07/18 06:00:49;;;;;;;;;1.00;1.00;;;;;24.49;33.49;101447.56;5027527;28;51260;-35
2023/07/18 06:03:14;;;;;;;;;0.00;0.00;;;;;24.53;33.92;101451.72;5027705;28;45938;-34
2023/07/18 06:05:40;;;;;;;;;1.00;1.00;;;;;24.52;33.75;101450.03;5006978;28;45359;-34
2023/07/18 06:08:05;;;;;;;;;1.50;1.00;;;;;24.50;33.69;101454.56;5033133;28;45174;-35
2023/07/18 06:10:31;;;;;;;;;1.50;1.00;;;;;24.52;33.31;101452.69;5038603;28;45153;-36
2023/07/18 06:12:56;;;;;;;;;2.00;0.00;;;;;24.55;33.70;101452.47;5014596;28;55402;-36
2023/07/18 06:15:21;;;;;;;;;1.25;1.00;;;;;24.55;33.44;101453.34;5018573;28;45343;-40
2023/07/18 06:17:46;;;;;;;;;2.50;0.50;;;;;24.57;33.56;101453.22;5000501;28;45368;-38
2023/07/18 06:20:12;;;;;;;;;2.25;1.25;;;;;24.59;33.66;101454.00;5009890;28;47337;-40
2023/07/18 06:22:38;;;;;;;;;1.00;1.00;;;;;24.62;33.41;101451.16;5020683;28;45668;-40
2023/07/18 06:25:04;;;;;;;;;2.00;1.00;;;;;24.62;33.59;101452.94;5017453;28;45781;-38
2023/07/18 06:27:31;;;;;;;;;0.75;0.75;;;;;24.64;33.39;101451.03;5017615;28;45403;-38
2023/07/18 06:29:56;;;;;;;;;1.00;1.00;;;;;24.65;33.85;101450.94;5033678;28;45543;-41
2023/07/18 06:32:23;;;;;;;;;1.25;1.25;;;;;24.66;33.81;101468.53;5018449;28;46110;-39
2023/07/18 06:34:49;;;;;;;;;4.00;1.25;;;;;24.65;33.37;101466.84;5017528;28;45262;-41
2023/07/18 06:37:14;;;;;;;;;1.50;0.75;;;;;24.65;33.25;101468.66;5017737;28;45297;-44
2023/07/18 06:39:39;;;;;;;;;1.00;1.00;;;;;24.65;33.37;101466.84;5017372;28;45658;-43
2023/07/18 06:42:08;;;;;;;;;2.75;2.50;;;;;24.67;33.70;101461.47;4998607;28;46067;-42
2023/07/18 06:44:33;;;;;;;;;1.00;1.00;;;;;24.68;33.69;101466.69;5016892;28;45876;-41
2023/07/18 06:46:59;;;;;;;;;1.00;1.00;;;;;24.68;33.31;101482.59;5016991;28;45396;-36
2023/07/18 06:49:24;;;;;;;;;2.00;2.00;;;;;24.70;33.91;101496.59;5025390;28;45395;-41
2023/07/18 06:51:51;;;;;;;;;1.00;1.00;;;;;24.72;33.19;101485.06;5033300;28;45373;-39
2023/07/18 06:54:17;;;;;;;;;3.00;3.00;;;;;24.73;33.36;101484.13;5020824;28;45268;-38
2023/07/18 06:56:42;;;;;;;;;1.00;1.00;;;;;24.70;33.13;101480.69;5021426;28;45319;-41
2023/07/18 06:59:08;;;;;;;;;2.00;2.00;;;;;24.72;33.66;101467.34;5032054;28;45451;-38
2023/07/18 07:01:34;;;;;;;;;2.50;1.00;;;;;24.71;33.72;101478.88;5028155;28;45257;-40
2023/07/18 07:04:03;;;;;;;;;4.00;2.00;;;;;24.71;33.25;101494.78;5006682;28;45314;-37
2023/07/18 07:06:28;;;;;;;;;2.50;1.00;;;;;24.69;33.32;101500.19;5023978;28;45458;-36
2023/07/18 07:08:54;;;;;;;;;1.00;1.00;;;;;24.65;33.60;101495.16;5018378;28;45432;-38
2023/07/18 07:11:19;;;;;;;;;2.50;1.75;;;;;24.64;33.18;101496.94;5016917;28;45931;-41
2023/07/18 07:13:45;;;;;;;;;3.00;1.00;;;;;24.64;33.34;101489.00;5016359;28;50635;-37
2023/07/18 07:16:10;;;;;;;;;2.00;1.00;;;;;24.64;33.60;101475.75;5016658;28;45507;-37
2023/07/18 07:18:36;;;;;;;;;2.75;1.25;;;;;24.65;33.70;101461.53;5016759;28;45520;-37
2023/07/18 07:21:01;;;;;;;;;1.00;1.00;;;;;24.67;33.30;101459.66;4998546;28;45918;-37
2023/07/18 07:23:28;;;;;;;;;1.75;1.75;;;;;24.69;33.23;101478.16;5016461;28;45518;-35
2023/07/18 07:25:54;;;;;;;;;2.25;2.00;;;;;24.70;33.67;101496.59;5016522;28;45271;-35
2023/07/18 07:28:22;;;;;;;;;1.75;0.75;;;;;24.70;33.66;101509.84;5016934;28;45499;-39
2023/07/18 07:30:48;;;;;;;;;1.00;1.00;;;;;24.74;33.80;101502.56;5016693;28;46189;-38
2023/07/18 07:33:13;;;;;;;;;4.00;1.75;;;;;24.74;33.23;101491.13;5016501;28;45375;-35
2023/07/18 07:35:38;;;;;;;;;1.00;1.00;;;;;24.73;33.71;101486.75;5018663;28;45454;-37
2023/07/18 07:38:05;;;;;;;;;3.25;2.00;;;;;24.75;33.77;101482.22;5019252;28;45396;-40
2023/07/18 07:40:31;;;;;;;;;1.00;1.00;;;;;24.75;33.21;101458.38;5018423;28;46151;-36
2023/07/18 07:42:56;;;;;;;;;2.00;2.00;;;;;24.76;33.89;101438.84;5022627;28;45397;-34
2023/07/18 07:45:22;;;;;;;;;5.00;2.00;;;;;24.75;33.48;101398.22;5023379;28;45496;-36
2023/07/18 07:47:48;;;;;;;;;1.00;1.00;;;;;24.74;33.68;101374.47;5039749;28;44937;-36
2023/07/18 07:50:13;;;;;;;;;3.25;1.50;;;;;24.75;33.87;101362.94;5032909;28;46079;-41
2023/07/18 07:52:38;;;;;;;;;4.00;2.00;;;;;24.76;33.67;101316.88;5028473;28;45277;-38
2023/07/18 07:55:04;;;;;;;;;2.50;1.25;;;;;24.73;33.35;101299.41;5029631;28;45252;-37
2023/07/18 07:57:29;;;;;;;;;3.00;1.00;;;;;24.72;33.49;101281.78;5021723;28;45431;-35
2023/07/18 07:59:55;;;;;;;;;3.00;3.00;;;;;24.70;33.81;101255.41;5039863;28;45355;-36
2023/07/18 08:02:20;;;;;;;;;6.00;3.75;;;;;24.70;33.39;101252.75;5037797;28;45234;-36
2023/07/18 08:04:47;;;;;;;;;4.75;3.00;;;;;24.68;33.45;101283.81;5003343;28;45276;-37
2023/07/18 08:07:14;;;;;;;;;9.25;5.50;;;;;24.66;33.46;101283.00;5019726;28;45481;-35
2023/07/18 08:09:39;;;;;;;;;4.25;3.50;;;;;24.66;33.30;101267.13;5001305;28;46944;-38
2023/07/18 08:12:06;;;;;;;;;6.50;2.00;;;;;24.66;33.76;101250.38;5002206;28;45395;-35
2023/07/18 08:14:32;;;;;;;;;3.00;3.00;;;;;24.63;33.69;101253.22;5006041;28;45399;-39
2023/07/18 08:16:58;;;;;;;;;2.25;2.00;;;;;24.63;33.94;101267.34;5033557;28;45547;-38
2023/07/18 08:19:24;;;;;;;;;2.25;2.00;;;;;24.62;33.75;101233.84;5026566;28;45427;-37
2023/07/18 08:21:49;;;;;;;;;6.75;3.25;;;;;24.63;33.67;101210.81;5025879;28;45408;-38
2023/07/18 08:24:15;;;;;;;;;3.00;3.00;;;;;24.59;33.59;101212.81;5008804;28;45336;-36
2023/07/18 08:26:40;;;;;;;;;4.25;2.25;;;;;24.61;34.03;101234.78;5019487;28;45271;-39
2023/07/18 08:29:06;;;;;;;;;3.25;3.00;;;;;24.62;34.26;101241.78;5019253;28;46477;-34
2023/07/18 08:31:31;;;;;;;;;7.25;3.00;;;;;24.59;33.78;101254.38;5019088;28;45330;-38
2023/07/18 08:33:57;;;;;;;;;7.50;3.00;;;;;24.57;34.10;101265.06;5019057;28;45297;-39
